sensor_id;sensor_type;location;lat;lon;timestamp;P1;durP1;ratioP1;P2;durP2;ratioP2
25758;SDS011;13604;52.496;13.456;2022-09-24T00:00:44;12.40;;;9.00;;
25758;SDS011;13604;52.496;13.456;2022-09-24T00:03:15;12.45;;;8.60;;
25758;SDS011;13604;52.496;13.456;2022-09-24T00:05:43;12.70;;;8.65;;
25758;SDS011;13604;52.496;13.456;2022-09-24T00:08:09;17.30;;;8.32;;
25758;SDS011;13604;52.496;13.456;2022-09-24T00:10:37;9.85;;;7.38;;
25758;SDS011;13604;52.496;13.456;2022-09-24T00:13:04;11.35;;;8.05;;
25758;SDS011;13604;52.496;13.456;2022-09-24T00:15:34;11.80;;;8.57;;
25758;SDS011;13604;52.496;13.456;2022-09-24T00:18:01;10.38;;;7.88;;
25758;SDS011;13604;52.496;13.456;2022-09-24T00:20:28;15.35;;;8.05;;
25758;SDS011;13604;52.496;13.456;2022-09-24T00:22:54;10.90;;;8.40;;
25758;SDS011;13604;52.496;13.456;2022-09-24T00:25:19;13.48;;;7.85;;
25758;SDS011;13604;52.496;13.456;2022-09-24T00:28:03;13.13;;;8.27;;
25758;SDS011;13604;52.496;13.456;2022-09-24T00:30:28;10.10;;;7.85;;
25758;SDS011;13604;52.496;13.456;2022-09-24T00:32:54;15.23;;;8.13;;
25758;SDS011;13604;52.496;13.456;2022-09-24T00:35:19;14.15;;;8.45;;
25758;SDS011;13604;52.496;13.456;2022-09-24T00:37:44;12.95;;;7.45;;
25758;SDS011;13604;52.496;13.456;2022-09-24T00:40:10;12.70;;;7.80;;
25758;SDS011;13604;52.496;13.456;2022-09-24T00:42:35;11.38;;;7.90;;
25758;SDS011;13604;52.496;13.456;2022-09-24T00:45:00;13.07;;;8.05;;
25758;SDS011;13604;52.496;13.456;2022-09-24T00:47:32;11.15;;;7.68;;
25758;SDS011;13604;52.496;13.456;2022-09-24T00:50:02;12.73;;;8.55;;
25758;SDS011;13604;52.496;13.456;2022-09-24T00:52:33;12.18;;;8.48;;
25758;SDS011;13604;52.496;13.456;2022-09-24T00:55:01;12.65;;;8.60;;
25758;SDS011;13604;52.496;13.456;2022-09-24T00:57:26;10.32;;;7.63;;
25758;SDS011;13604;52.496;13.456;2022-09-24T00:59:52;12.23;;;7.78;;
25758;SDS011;13604;52.496;13.456;2022-09-24T01:02:19;11.23;;;7.15;;
25758;SDS011;13604;52.496;13.456;2022-09-24T01:04:45;10.10;;;7.60;;
25758;SDS011;13604;52.496;13.456;2022-09-24T01:07:10;10.07;;;7.68;;
25758;SDS011;13604;52.496;13.456;2022-09-24T01:09:36;11.32;;;8.00;;
25758;SDS011;13604;52.496;13.456;2022-09-24T01:17:33;10.18;;;7.47;;
25758;SDS011;13604;52.496;13.456;2022-09-24T01:20:12;10.98;;;7.15;;
25758;SDS011;13604;52.496;13.456;2022-09-24T01:31:25;9.90;;;7.82;;
25758;SDS011;13604;52.496;13.456;2022-09-24T01:33:57;10.93;;;7.80;;
25758;SDS011;13604;52.496;13.456;2022-09-24T01:36:25;10.77;;;7.85;;
25758;SDS011;13604;52.496;13.456;2022-09-24T01:38:53;10.85;;;8.10;;
25758;SDS011;13604;52.496;13.456;2022-09-24T01:41:19;12.43;;;8.80;;
25758;SDS011;13604;52.496;13.456;2022-09-24T01:43:46;16.92;;;8.77;;
25758;SDS011;13604;52.496;13.456;2022-09-24T01:46:13;11.05;;;8.70;;
25758;SDS011;13604;52.496;13.456;2022-09-24T01:48:43;16.30;;;8.30;;
25758;SDS011;13604;52.496;13.456;2022-09-24T01:51:11;14.00;;;9.25;;
25758;SDS011;13604;52.496;13.456;2022-09-24T01:56:37;10.40;;;8.05;;
25758;SDS011;13604;52.496;13.456;2022-09-24T01:59:12;12.38;;;8.52;;
25758;SDS011;13604;52.496;13.456;2022-09-24T02:01:56;12.02;;;7.80;;
25758;SDS011;13604;52.496;13.456;2022-09-24T02:04:26;13.15;;;7.72;;
25758;SDS011;13604;52.496;13.456;2022-09-24T02:07:01;11.07;;;7.97;;
25758;SDS011;13604;52.496;13.456;2022-09-24T02:09:32;10.75;;;7.70;;
25758;SDS011;13604;52.496;13.456;2022-09-24T02:12:09;12.05;;;8.50;;
25758;SDS011;13604;52.496;13.456;2022-09-24T02:14:43;11.48;;;8.18;;
25758;SDS011;13604;52.496;13.456;2022-09-24T02:17:12;14.13;;;8.45;;
25758;SDS011;13604;52.496;13.456;2022-09-24T02:19:39;11.25;;;7.57;;
25758;SDS011;13604;52.496;13.456;2022-09-24T02:22:06;10.82;;;7.40;;
25758;SDS011;13604;52.496;13.456;2022-09-24T02:24:44;13.68;;;7.93;;
25758;SDS011;13604;52.496;13.456;2022-09-24T02:27:14;11.98;;;7.85;;
25758;SDS011;13604;52.496;13.456;2022-09-24T02:29:40;10.10;;;7.78;;
25758;SDS011;13604;52.496;13.456;2022-09-24T02:32:05;10.43;;;8.02;;
25758;SDS011;13604;52.496;13.456;2022-09-24T02:34:36;11.98;;;8.80;;
25758;SDS011;13604;52.496;13.456;2022-09-24T02:37:06;11.75;;;8.48;;
25758;SDS011;13604;52.496;13.456;2022-09-24T02:39:33;14.10;;;8.60;;
25758;SDS011;13604;52.496;13.456;2022-09-24T02:42:00;10.40;;;7.90;;
25758;SDS011;13604;52.496;13.456;2022-09-24T02:44:27;11.32;;;7.90;;
25758;SDS011;13604;52.496;13.456;2022-09-24T02:46:55;12.85;;;8.32;;
25758;SDS011;13604;52.496;13.456;2022-09-24T02:49:20;10.38;;;7.65;;
25758;SDS011;13604;52.496;13.456;2022-09-24T02:51:45;13.40;;;9.13;;
25758;SDS011;13604;52.496;13.456;2022-09-24T02:54:11;11.35;;;7.72;;
25758;SDS011;13604;52.496;13.456;2022-09-24T02:56:36;12.18;;;8.30;;
25758;SDS011;13604;52.496;13.456;2022-09-24T02:59:02;11.43;;;8.15;;
25758;SDS011;13604;52.496;13.456;2022-09-24T03:01:28;12.13;;;7.53;;
25758;SDS011;13604;52.496;13.456;2022-09-24T03:03:54;12.10;;;8.20;;
25758;SDS011;13604;52.496;13.456;2022-09-24T03:06:20;12.57;;;7.65;;
25758;SDS011;13604;52.496;13.456;2022-09-24T03:08:45;9.80;;;7.80;;
25758;SDS011;13604;52.496;13.456;2022-09-24T03:11:11;9.45;;;7.38;;
25758;SDS011;13604;52.496;13.456;2022-09-24T03:13:37;12.32;;;7.88;;
25758;SDS011;13604;52.496;13.456;2022-09-24T03:16:03;10.45;;;8.13;;
25758;SDS011;13604;52.496;13.456;2022-09-24T03:18:30;12.90;;;8.70;;
25758;SDS011;13604;52.496;13.456;2022-09-24T03:20:59;12.38;;;8.13;;
25758;SDS011;13604;52.496;13.456;2022-09-24T03:23:26;16.30;;;8.20;;
25758;SDS011;13604;52.496;13.456;2022-09-24T03:25:52;16.40;;;8.48;;
25758;SDS011;13604;52.496;13.456;2022-09-24T03:28:19;9.93;;;8.27;;
25758;SDS011;13604;52.496;13.456;2022-09-24T03:30:45;10.93;;;8.05;;
25758;SDS011;13604;52.496;13.456;2022-09-24T03:33:36;14.38;;;8.55;;
25758;SDS011;13604;52.496;13.456;2022-09-24T03:36:04;16.38;;;8.80;;
25758;SDS011;13604;52.496;13.456;2022-09-24T03:38:31;12.05;;;8.65;;
25758;SDS011;13604;52.496;13.456;2022-09-24T03:40:57;11.05;;;8.30;;
25758;SDS011;13604;52.496;13.456;2022-09-24T03:43:24;11.93;;;8.13;;
25758;SDS011;13604;52.496;13.456;2022-09-24T03:45:49;13.70;;;8.40;;
25758;SDS011;13604;52.496;13.456;2022-09-24T03:48:15;10.20;;;7.50;;
25758;SDS011;13604;52.496;13.456;2022-09-24T03:50:42;8.77;;;6.93;;
25758;SDS011;13604;52.496;13.456;2022-09-24T03:53:07;11.68;;;8.23;;
25758;SDS011;13604;52.496;13.456;2022-09-24T03:55:33;11.85;;;8.07;;
25758;SDS011;13604;52.496;13.456;2022-09-24T03:57:59;11.98;;;8.77;;
25758;SDS011;13604;52.496;13.456;2022-09-24T04:00:25;12.90;;;8.30;;
25758;SDS011;13604;52.496;13.456;2022-09-24T04:02:51;10.88;;;8.02;;
25758;SDS011;13604;52.496;13.456;2022-09-24T04:05:16;12.95;;;8.55;;
25758;SDS011;13604;52.496;13.456;2022-09-24T04:07:43;13.32;;;8.73;;
25758;SDS011;13604;52.496;13.456;2022-09-24T04:10:08;13.73;;;9.00;;
25758;SDS011;13604;52.496;13.456;2022-09-24T04:12:33;10.65;;;8.27;;
25758;SDS011;13604;52.496;13.456;2022-09-24T04:14:59;9.63;;;7.65;;
25758;SDS011;13604;52.496;13.456;2022-09-24T04:17:27;9.80;;;7.82;;
25758;SDS011;13604;52.496;13.456;2022-09-24T04:19:58;11.05;;;8.40;;
25758;SDS011;13604;52.496;13.456;2022-09-24T04:22:24;12.55;;;8.68;;
25758;SDS011;13604;52.496;13.456;2022-09-24T04:24:50;10.23;;;7.80;;
25758;SDS011;13604;52.496;13.456;2022-09-24T04:27:16;10.85;;;7.80;;
25758;SDS011;13604;52.496;13.456;2022-09-24T04:29:42;12.07;;;8.48;;
25758;SDS011;13604;52.496;13.456;2022-09-24T04:32:07;12.02;;;8.50;;
25758;SDS011;13604;52.496;13.456;2022-09-24T04:34:33;11.20;;;8.32;;
25758;SDS011;13604;52.496;13.456;2022-09-24T04:36:58;11.68;;;8.10;;
25758;SDS011;13604;52.496;13.456;2022-09-24T04:39:23;9.90;;;7.63;;
25758;SDS011;13604;52.496;13.456;2022-09-24T04:41:51;11.43;;;8.55;;
25758;SDS011;13604;52.496;13.456;2022-09-24T04:44:17;10.95;;;9.10;;
25758;SDS011;13604;52.496;13.456;2022-09-24T04:46:42;11.65;;;8.35;;
25758;SDS011;13604;52.496;13.456;2022-09-24T04:49:08;11.25;;;8.95;;
25758;SDS011;13604;52.496;13.456;2022-09-24T04:51:34;10.15;;;8.13;;
25758;SDS011;13604;52.496;13.456;2022-09-24T04:53:59;12.98;;;8.27;;
25758;SDS011;13604;52.496;13.456;2022-09-24T04:56:26;12.05;;;8.70;;
25758;SDS011;13604;52.496;13.456;2022-09-24T04:58:52;12.18;;;8.60;;
25758;SDS011;13604;52.496;13.456;2022-09-24T05:01:18;15.32;;;8.70;;
25758;SDS011;13604;52.496;13.456;2022-09-24T05:03:44;12.93;;;9.15;;
25758;SDS011;13604;52.496;13.456;2022-09-24T05:06:09;13.15;;;8.98;;
25758;SDS011;13604;52.496;13.456;2022-09-24T05:08:34;12.00;;;8.50;;
25758;SDS011;13604;52.496;13.456;2022-09-24T05:11:00;11.48;;;8.05;;
25758;SDS011;13604;52.496;13.456;2022-09-24T05:13:26;13.43;;;8.88;;
25758;SDS011;13604;52.496;13.456;2022-09-24T05:15:52;12.35;;;8.13;;
25758;SDS011;13604;52.496;13.456;2022-09-24T05:18:17;8.70;;;7.22;;
25758;SDS011;13604;52.496;13.456;2022-09-24T05:20:42;12.13;;;7.53;;
25758;SDS011;13604;52.496;13.456;2022-09-24T05:23:08;12.63;;;8.48;;
25758;SDS011;13604;52.496;13.456;2022-09-24T05:25:33;9.65;;;8.18;;
25758;SDS011;13604;52.496;13.456;2022-09-24T05:28:18;9.30;;;7.32;;
25758;SDS011;13604;52.496;13.456;2022-09-24T05:30:45;13.93;;;7.75;;
25758;SDS011;13604;52.496;13.456;2022-09-24T05:33:10;13.40;;;9.00;;
25758;SDS011;13604;52.496;13.456;2022-09-24T05:35:35;9.90;;;8.07;;
25758;SDS011;13604;52.496;13.456;2022-09-24T05:38:01;13.45;;;7.68;;
25758;SDS011;13604;52.496;13.456;2022-09-24T05:40:26;11.20;;;7.68;;
25758;SDS011;13604;52.496;13.456;2022-09-24T05:43:10;15.48;;;9.25;;
25758;SDS011;13604;52.496;13.456;2022-09-24T05:45:35;12.18;;;8.77;;
25758;SDS011;13604;52.496;13.456;2022-09-24T05:48:01;10.73;;;8.77;;
25758;SDS011;13604;52.496;13.456;2022-09-24T05:50:26;13.93;;;8.68;;
25758;SDS011;13604;52.496;13.456;2022-09-24T05:52:51;12.02;;;8.75;;
25758;SDS011;13604;52.496;13.456;2022-09-24T05:55:17;13.50;;;8.90;;
25758;SDS011;13604;52.496;13.456;2022-09-24T05:57:42;10.25;;;7.57;;
25758;SDS011;13604;52.496;13.456;2022-09-24T06:00:08;10.27;;;7.00;;
25758;SDS011;13604;52.496;13.456;2022-09-24T06:02:33;9.57;;;7.32;;
25758;SDS011;13604;52.496;13.456;2022-09-24T06:04:58;8.73;;;6.95;;
25758;SDS011;13604;52.496;13.456;2022-09-24T06:07:24;9.48;;;7.15;;
25758;SDS011;13604;52.496;13.456;2022-09-24T06:09:49;10.40;;;8.00;;
25758;SDS011;13604;52.496;13.456;2022-09-24T06:12:15;11.43;;;7.45;;
25758;SDS011;13604;52.496;13.456;2022-09-24T06:14:41;10.27;;;7.35;;
25758;SDS011;13604;52.496;13.456;2022-09-24T06:17:07;9.30;;;6.95;;
25758;SDS011;13604;52.496;13.456;2022-09-24T06:19:32;9.07;;;7.57;;
25758;SDS011;13604;52.496;13.456;2022-09-24T06:21:58;13.02;;;7.70;;
25758;SDS011;13604;52.496;13.456;2022-09-24T06:24:23;12.98;;;8.40;;
25758;SDS011;13604;52.496;13.456;2022-09-24T06:26:48;9.70;;;7.28;;
25758;SDS011;13604;52.496;13.456;2022-09-24T06:29:14;10.18;;;7.35;;
25758;SDS011;13604;52.496;13.456;2022-09-24T06:31:39;10.48;;;6.97;;
25758;SDS011;13604;52.496;13.456;2022-09-24T06:34:04;9.95;;;7.30;;
25758;SDS011;13604;52.496;13.456;2022-09-24T06:36:30;12.10;;;8.13;;
25758;SDS011;13604;52.496;13.456;2022-09-24T06:38:55;10.15;;;7.38;;
25758;SDS011;13604;52.496;13.456;2022-09-24T06:41:22;10.38;;;7.80;;
25758;SDS011;13604;52.496;13.456;2022-09-24T06:43:48;12.57;;;7.78;;
25758;SDS011;13604;52.496;13.456;2022-09-24T06:46:13;9.07;;;7.93;;
25758;SDS011;13604;52.496;13.456;2022-09-24T06:48:39;10.43;;;7.22;;
25758;SDS011;13604;52.496;13.456;2022-09-24T06:51:05;11.43;;;7.82;;
25758;SDS011;13604;52.496;13.456;2022-09-24T06:53:31;14.93;;;8.38;;
25758;SDS011;13604;52.496;13.456;2022-09-24T06:55:57;9.88;;;7.85;;
25758;SDS011;13604;52.496;13.456;2022-09-24T06:58:27;10.05;;;7.70;;
25758;SDS011;13604;52.496;13.456;2022-09-24T07:00:54;12.70;;;8.13;;
25758;SDS011;13604;52.496;13.456;2022-09-24T07:03:26;10.80;;;7.68;;
25758;SDS011;13604;52.496;13.456;2022-09-24T07:05:53;12.30;;;7.55;;
25758;SDS011;13604;52.496;13.456;2022-09-24T07:08:19;10.77;;;7.70;;
25758;SDS011;13604;52.496;13.456;2022-09-24T07:10:44;11.93;;;7.28;;
25758;SDS011;13604;52.496;13.456;2022-09-24T07:13:12;11.88;;;8.02;;
25758;SDS011;13604;52.496;13.456;2022-09-24T07:15:38;10.85;;;7.35;;
25758;SDS011;13604;52.496;13.456;2022-09-24T07:18:04;18.77;;;7.97;;
25758;SDS011;13604;52.496;13.456;2022-09-24T07:20:29;11.30;;;7.65;;
25758;SDS011;13604;52.496;13.456;2022-09-24T07:22:55;11.50;;;7.85;;
25758;SDS011;13604;52.496;13.456;2022-09-24T07:25:20;13.43;;;8.07;;
25758;SDS011;13604;52.496;13.456;2022-09-24T07:27:46;9.90;;;7.68;;
25758;SDS011;13604;52.496;13.456;2022-09-24T07:30:11;13.68;;;7.25;;
25758;SDS011;13604;52.496;13.456;2022-09-24T07:32:36;13.02;;;7.32;;
25758;SDS011;13604;52.496;13.456;2022-09-24T07:35:02;10.38;;;7.55;;
25758;SDS011;13604;52.496;13.456;2022-09-24T07:37:28;8.90;;;6.97;;
25758;SDS011;13604;52.496;13.456;2022-09-24T07:39:56;12.02;;;7.75;;
25758;SDS011;13604;52.496;13.456;2022-09-24T07:42:22;15.05;;;8.38;;
25758;SDS011;13604;52.496;13.456;2022-09-24T07:44:47;15.02;;;7.88;;
25758;SDS011;13604;52.496;13.456;2022-09-24T07:47:13;11.35;;;8.02;;
25758;SDS011;13604;52.496;13.456;2022-09-24T07:49:39;14.95;;;8.27;;
25758;SDS011;13604;52.496;13.456;2022-09-24T07:52:06;15.05;;;8.50;;
25758;SDS011;13604;52.496;13.456;2022-09-24T07:54:31;13.18;;;7.97;;
25758;SDS011;13604;52.496;13.456;2022-09-24T07:56:56;10.98;;;8.05;;
25758;SDS011;13604;52.496;13.456;2022-09-24T07:59:22;13.63;;;8.70;;
25758;SDS011;13604;52.496;13.456;2022-09-24T08:01:47;12.38;;;7.72;;
25758;SDS011;13604;52.496;13.456;2022-09-24T08:04:12;15.95;;;9.05;;
25758;SDS011;13604;52.496;13.456;2022-09-24T08:06:38;10.45;;;7.13;;
25758;SDS011;13604;52.496;13.456;2022-09-24T08:09:03;15.88;;;7.25;;
25758;SDS011;13604;52.496;13.456;2022-09-24T08:11:30;12.38;;;8.27;;
25758;SDS011;13604;52.496;13.456;2022-09-24T08:13:55;12.43;;;8.18;;
25758;SDS011;13604;52.496;13.456;2022-09-24T08:16:21;11.20;;;7.78;;
25758;SDS011;13604;52.496;13.456;2022-09-24T08:18:48;11.18;;;7.30;;
25758;SDS011;13604;52.496;13.456;2022-09-24T08:21:13;13.77;;;7.00;;
25758;SDS011;13604;52.496;13.456;2022-09-24T08:23:39;11.82;;;8.07;;
25758;SDS011;13604;52.496;13.456;2022-09-24T08:26:06;9.93;;;7.03;;
25758;SDS011;13604;52.496;13.456;2022-09-24T08:28:31;14.48;;;7.40;;
25758;SDS011;13604;52.496;13.456;2022-09-24T08:30:57;9.38;;;6.93;;
25758;SDS011;13604;52.496;13.456;2022-09-24T08:33:24;13.43;;;7.32;;
25758;SDS011;13604;52.496;13.456;2022-09-24T08:35:49;9.68;;;7.00;;
25758;SDS011;13604;52.496;13.456;2022-09-24T08:38:15;8.90;;;6.93;;
25758;SDS011;13604;52.496;13.456;2022-09-24T08:40:44;8.55;;;6.15;;
25758;SDS011;13604;52.496;13.456;2022-09-24T08:43:36;12.98;;;6.70;;
25758;SDS011;13604;52.496;13.456;2022-09-24T08:46:12;11.95;;;6.82;;
25758;SDS011;13604;52.496;13.456;2022-09-24T08:49:01;10.88;;;7.13;;
25758;SDS011;13604;52.496;13.456;2022-09-24T08:51:29;10.75;;;7.50;;
25758;SDS011;13604;52.496;13.456;2022-09-24T08:54:03;9.05;;;6.63;;
25758;SDS011;13604;52.496;13.456;2022-09-24T08:56:33;8.88;;;7.30;;
25758;SDS011;13604;52.496;13.456;2022-09-24T08:59:03;10.60;;;7.15;;
25758;SDS011;13604;52.496;13.456;2022-09-24T09:01:41;13.68;;;8.30;;
25758;SDS011;13604;52.496;13.456;2022-09-24T09:07:09;10.23;;;6.90;;
25758;SDS011;13604;52.496;13.456;2022-09-24T09:09:43;7.78;;;5.93;;
25758;SDS011;13604;52.496;13.456;2022-09-24T09:12:18;10.82;;;6.88;;
25758;SDS011;13604;52.496;13.456;2022-09-24T09:17:36;11.18;;;7.53;;
25758;SDS011;13604;52.496;13.456;2022-09-24T09:20:09;9.43;;;7.18;;
25758;SDS011;13604;52.496;13.456;2022-09-24T09:22:49;10.27;;;6.97;;
25758;SDS011;13604;52.496;13.456;2022-09-24T09:25:23;15.55;;;8.48;;
25758;SDS011;13604;52.496;13.456;2022-09-24T09:27:57;12.23;;;7.70;;
25758;SDS011;13604;52.496;13.456;2022-09-24T09:30:38;13.75;;;7.38;;
25758;SDS011;13604;52.496;13.456;2022-09-24T09:41:58;9.38;;;6.85;;
25758;SDS011;13604;52.496;13.456;2022-09-24T09:44:40;11.93;;;7.45;;
25758;SDS011;13604;52.496;13.456;2022-09-24T09:50:14;8.65;;;6.55;;
25758;SDS011;13604;52.496;13.456;2022-09-24T09:52:49;10.82;;;7.30;;
25758;SDS011;13604;52.496;13.456;2022-09-24T09:55:25;13.15;;;7.50;;
25758;SDS011;13604;52.496;13.456;2022-09-24T10:00:38;15.73;;;7.50;;
25758;SDS011;13604;52.496;13.456;2022-09-24T10:03:04;9.38;;;7.00;;
25758;SDS011;13604;52.496;13.456;2022-09-24T10:05:30;12.00;;;7.93;;
25758;SDS011;13604;52.496;13.456;2022-09-24T10:07:55;11.35;;;6.65;;
25758;SDS011;13604;52.496;13.456;2022-09-24T10:10:22;16.30;;;6.55;;
25758;SDS011;13604;52.496;13.456;2022-09-24T10:12:53;12.00;;;7.90;;
25758;SDS011;13604;52.496;13.456;2022-09-24T10:15:51;10.25;;;7.10;;
25758;SDS011;13604;52.496;13.456;2022-09-24T10:18:23;10.55;;;6.68;;
25758;SDS011;13604;52.496;13.456;2022-09-24T10:20:55;9.70;;;6.05;;
25758;SDS011;13604;52.496;13.456;2022-09-24T10:23:31;9.93;;;6.28;;
25758;SDS011;13604;52.496;13.456;2022-09-24T10:26:00;8.07;;;5.75;;
25758;SDS011;13604;52.496;13.456;2022-09-24T10:28:27;11.15;;;5.68;;
25758;SDS011;13604;52.496;13.456;2022-09-24T10:31:13;8.63;;;5.95;;
25758;SDS011;13604;52.496;13.456;2022-09-24T10:33:44;6.93;;;5.47;;
25758;SDS011;13604;52.496;13.456;2022-09-24T10:36:30;6.00;;;5.32;;
25758;SDS011;13604;52.496;13.456;2022-09-24T10:39:09;6.32;;;5.35;;
25758;SDS011;13604;52.496;13.456;2022-09-24T10:41:44;8.57;;;5.03;;
25758;SDS011;13604;52.496;13.456;2022-09-24T10:44:10;8.13;;;5.28;;
25758;SDS011;13604;52.496;13.456;2022-09-24T10:49:51;7.68;;;4.90;;
25758;SDS011;13604;52.496;13.456;2022-09-24T10:52:30;10.50;;;5.72;;
25758;SDS011;13604;52.496;13.456;2022-09-24T10:55:22;5.38;;;4.75;;
25758;SDS011;13604;52.496;13.456;2022-09-24T10:58:12;6.07;;;4.65;;
25758;SDS011;13604;52.496;13.456;2022-09-24T11:11:30;7.85;;;4.50;;
25758;SDS011;13604;52.496;13.456;2022-09-24T11:14:16;9.15;;;5.05;;
25758;SDS011;13604;52.496;13.456;2022-09-24T11:17:12;6.45;;;4.03;;
25758;SDS011;13604;52.496;13.456;2022-09-24T11:19:57;8.70;;;4.47;;
25758;SDS011;13604;52.496;13.456;2022-09-24T11:27:55;7.72;;;4.38;;
25758;SDS011;13604;52.496;13.456;2022-09-24T11:33:45;8.55;;;4.88;;
25758;SDS011;13604;52.496;13.456;2022-09-24T11:39:17;5.93;;;4.28;;
25758;SDS011;13604;52.496;13.456;2022-09-24T11:47:14;7.20;;;4.37;;
25758;SDS011;13604;52.496;13.456;2022-09-24T11:52:39;5.95;;;5.07;;
25758;SDS011;13604;52.496;13.456;2022-09-24T11:55:13;7.38;;;4.72;;
25758;SDS011;13604;52.496;13.456;2022-09-24T11:57:43;5.93;;;4.47;;
25758;SDS011;13604;52.496;13.456;2022-09-24T12:00:16;6.55;;;4.80;;
25758;SDS011;13604;52.496;13.456;2022-09-24T12:02:55;6.35;;;4.25;;
25758;SDS011;13604;52.496;13.456;2022-09-24T12:05:36;8.95;;;5.00;;
25758;SDS011;13604;52.496;13.456;2022-09-24T12:08:15;7.78;;;4.35;;
25758;SDS011;13604;52.496;13.456;2022-09-24T12:10:51;5.68;;;4.38;;
25758;SDS011;13604;52.496;13.456;2022-09-24T12:13:27;7.25;;;4.75;;
25758;SDS011;13604;52.496;13.456;2022-09-24T12:15:59;5.30;;;4.30;;
25758;SDS011;13604;52.496;13.456;2022-09-24T12:18:30;5.93;;;4.20;;
25758;SDS011;13604;52.496;13.456;2022-09-24T12:21:09;6.22;;;4.30;;
25758;SDS011;13604;52.496;13.456;2022-09-24T12:23:38;6.68;;;4.47;;
25758;SDS011;13604;52.496;13.456;2022-09-24T12:26:26;4.90;;;4.30;;
25758;SDS011;13604;52.496;13.456;2022-09-24T12:29:28;7.00;;;5.10;;
25758;SDS011;13604;52.496;13.456;2022-09-24T12:51:50;5.75;;;5.15;;
25758;SDS011;13604;52.496;13.456;2022-09-24T12:59:48;7.32;;;5.10;;
25758;SDS011;13604;52.496;13.456;2022-09-24T13:02:21;5.30;;;4.18;;
25758;SDS011;13604;52.496;13.456;2022-09-24T13:04:49;7.88;;;4.25;;
25758;SDS011;13604;52.496;13.456;2022-09-24T13:12:40;5.30;;;4.43;;
25758;SDS011;13604;52.496;13.456;2022-09-24T13:15:07;4.90;;;3.80;;
25758;SDS011;13604;52.496;13.456;2022-09-24T13:17:58;8.40;;;4.32;;
25758;SDS011;13604;52.496;13.456;2022-09-24T13:20:30;6.82;;;3.80;;
25758;SDS011;13604;52.496;13.456;2022-09-24T13:23:13;6.45;;;4.82;;
25758;SDS011;13604;52.496;13.456;2022-09-24T13:25:56;5.63;;;4.22;;
25758;SDS011;13604;52.496;13.456;2022-09-24T13:28:24;7.15;;;4.40;;
25758;SDS011;13604;52.496;13.456;2022-09-24T13:33:52;4.57;;;4.03;;
25758;SDS011;13604;52.496;13.456;2022-09-24T13:36:37;4.97;;;4.22;;
25758;SDS011;13604;52.496;13.456;2022-09-24T13:39:08;5.68;;;4.28;;
25758;SDS011;13604;52.496;13.456;2022-09-24T13:44:06;8.10;;;5.57;;
25758;SDS011;13604;52.496;13.456;2022-09-24T13:46:40;6.30;;;4.68;;
25758;SDS011;13604;52.496;13.456;2022-09-24T13:49:10;4.90;;;3.85;;
25758;SDS011;13604;52.496;13.456;2022-09-24T13:51:40;4.70;;;4.00;;
25758;SDS011;13604;52.496;13.456;2022-09-24T13:54:22;6.55;;;4.40;;
25758;SDS011;13604;52.496;13.456;2022-09-24T13:57:04;6.18;;;4.40;;
25758;SDS011;13604;52.496;13.456;2022-09-24T13:59:35;6.38;;;4.82;;
25758;SDS011;13604;52.496;13.456;2022-09-24T14:02:00;4.82;;;3.88;;
25758;SDS011;13604;52.496;13.456;2022-09-24T14:04:25;6.72;;;4.68;;
25758;SDS011;13604;52.496;13.456;2022-09-24T14:06:52;6.30;;;4.20;;
25758;SDS011;13604;52.496;13.456;2022-09-24T14:09:30;7.05;;;4.65;;
25758;SDS011;13604;52.496;13.456;2022-09-24T14:11:56;5.80;;;4.80;;
25758;SDS011;13604;52.496;13.456;2022-09-24T14:14:24;5.75;;;4.18;;
25758;SDS011;13604;52.496;13.456;2022-09-24T14:16:52;5.32;;;3.85;;
25758;SDS011;13604;52.496;13.456;2022-09-24T14:19:19;6.10;;;4.75;;
25758;SDS011;13604;52.496;13.456;2022-09-24T14:26:54;5.82;;;4.65;;
25758;SDS011;13604;52.496;13.456;2022-09-24T14:29:26;5.95;;;4.40;;
25758;SDS011;13604;52.496;13.456;2022-09-24T14:32:00;6.78;;;4.72;;
25758;SDS011;13604;52.496;13.456;2022-09-24T14:34:31;5.57;;;4.78;;
25758;SDS011;13604;52.496;13.456;2022-09-24T14:37:04;7.63;;;4.32;;
25758;SDS011;13604;52.496;13.456;2022-09-24T14:39:37;5.20;;;4.35;;
25758;SDS011;13604;52.496;13.456;2022-09-24T14:42:08;9.57;;;5.55;;
25758;SDS011;13604;52.496;13.456;2022-09-24T14:44:41;5.25;;;4.38;;
25758;SDS011;13604;52.496;13.456;2022-09-24T14:50:21;6.18;;;4.70;;
25758;SDS011;13604;52.496;13.456;2022-09-24T14:52:54;6.35;;;4.63;;
25758;SDS011;13604;52.496;13.456;2022-09-24T14:55:21;7.32;;;4.57;;
25758;SDS011;13604;52.496;13.456;2022-09-24T14:58:00;4.88;;;4.10;;
25758;SDS011;13604;52.496;13.456;2022-09-24T15:00:26;6.75;;;5.30;;
25758;SDS011;13604;52.496;13.456;2022-09-24T15:03:00;8.13;;;5.35;;
25758;SDS011;13604;52.496;13.456;2022-09-24T15:05:29;5.97;;;4.40;;
25758;SDS011;13604;52.496;13.456;2022-09-24T15:10:58;6.57;;;5.03;;
25758;SDS011;13604;52.496;13.456;2022-09-24T15:13:27;5.50;;;4.60;;
25758;SDS011;13604;52.496;13.456;2022-09-24T15:18:47;6.95;;;4.90;;
25758;SDS011;13604;52.496;13.456;2022-09-24T15:21:21;5.43;;;4.18;;
25758;SDS011;13604;52.496;13.456;2022-09-24T15:23:46;9.13;;;5.38;;
25758;SDS011;13604;52.496;13.456;2022-09-24T15:26:11;7.15;;;5.22;;
25758;SDS011;13604;52.496;13.456;2022-09-24T15:28:37;6.53;;;4.97;;
25758;SDS011;13604;52.496;13.456;2022-09-24T15:31:02;5.45;;;4.85;;
25758;SDS011;13604;52.496;13.456;2022-09-24T15:33:27;8.82;;;5.72;;
25758;SDS011;13604;52.496;13.456;2022-09-24T15:35:52;8.95;;;5.38;;
25758;SDS011;13604;52.496;13.456;2022-09-24T15:38:18;9.40;;;6.10;;
25758;SDS011;13604;52.496;13.456;2022-09-24T15:40:43;6.95;;;5.32;;
25758;SDS011;13604;52.496;13.456;2022-09-24T15:43:19;11.63;;;6.15;;
25758;SDS011;13604;52.496;13.456;2022-09-24T15:45:46;14.32;;;6.93;;
25758;SDS011;13604;52.496;13.456;2022-09-24T15:48:12;11.50;;;7.57;;
25758;SDS011;13604;52.496;13.456;2022-09-24T15:50:41;14.13;;;7.07;;
25758;SDS011;13604;52.496;13.456;2022-09-24T15:53:11;10.82;;;6.18;;
25758;SDS011;13604;52.496;13.456;2022-09-24T15:55:43;9.05;;;6.30;;
25758;SDS011;13604;52.496;13.456;2022-09-24T15:58:12;8.38;;;6.55;;
25758;SDS011;13604;52.496;13.456;2022-09-24T16:00:38;11.95;;;7.78;;
25758;SDS011;13604;52.496;13.456;2022-09-24T16:03:04;11.43;;;5.80;;
25758;SDS011;13604;52.496;13.456;2022-09-24T16:05:30;9.32;;;6.25;;
25758;SDS011;13604;52.496;13.456;2022-09-24T16:07:55;13.55;;;6.13;;
25758;SDS011;13604;52.496;13.456;2022-09-24T16:10:21;10.40;;;6.55;;
25758;SDS011;13604;52.496;13.456;2022-09-24T16:12:46;9.13;;;6.70;;
25758;SDS011;13604;52.496;13.456;2022-09-24T16:15:12;10.88;;;6.32;;
25758;SDS011;13604;52.496;13.456;2022-09-24T16:17:38;9.75;;;6.40;;
25758;SDS011;13604;52.496;13.456;2022-09-24T16:20:04;13.20;;;6.40;;
25758;SDS011;13604;52.496;13.456;2022-09-24T16:22:31;11.05;;;6.70;;
25758;SDS011;13604;52.496;13.456;2022-09-24T16:24:56;9.95;;;5.70;;
25758;SDS011;13604;52.496;13.456;2022-09-24T16:27:21;9.13;;;5.97;;
25758;SDS011;13604;52.496;13.456;2022-09-24T16:29:47;10.18;;;6.50;;
25758;SDS011;13604;52.496;13.456;2022-09-24T16:32:12;10.05;;;6.45;;
25758;SDS011;13604;52.496;13.456;2022-09-24T16:34:38;11.27;;;6.80;;
25758;SDS011;13604;52.496;13.456;2022-09-24T16:37:04;8.15;;;5.63;;
25758;SDS011;13604;52.496;13.456;2022-09-24T16:39:30;8.50;;;5.53;;